^^
Datos históricos de la estación: Murcia-Puente Tocinos
Diario Informe para Enero 10, 2019 Unidades:  Ambas    Ingés   Métrico
Diario Semanal Mensual Anual
  Máxima: Mínima: Promedio:
Temperatura: 100.6 °F /  38.1 °C 81.3 °F /  27.4 °C 89.6 °F /  32 °C
Punto de rocio: 71.8 °F /  22.1 °C 51.1 °F /  10.6 °C 62.1 °F /  16.7 °C
Humedad: 65% 26% 41%
Velocidad viento: 13.5mph /  21.7km/h - 6.5mph /  10.5km/h
Racha viento: 26mph /  41.8km/h - -
Viento- - SSE
Presión: 29.9 in /  1014.1 hPa 29.9 in /  1011.4 hPa -
Precipitación: 0 in /  0.0 mm    
 
 
Tabla de datos para Enero 10, 2019
Hora Temperatura Punto de rocio Presión Viento Velocidad viento Racha viento Humedad Intensidad lluvia(por hora) Nubes
00:04 84.9 °F /  29.4 °C 71.8 °F /  22.1 °C 29.9in /  1011.4hPa NNE 2mph /  3.2km/h 5mph /  8km/h 65% 0in /  0.0mm
00:09 84.9 °F /  29.4 °C 71.8 °F /  22.1 °C 29.9in /  1011.4hPa NNE 1.9mph /  3.1km/h 4.3mph /  6.9km/h 65% 0in /  0.0mm
00:14 84.9 °F /  29.4 °C 71.4 °F /  21.9 °C 29.9in /  1011.4hPa NNO 1.4mph /  2.2km/h 5mph /  8km/h 64.2% 0in /  0.0mm
00:19 84.7 °F /  29.3 °C 71.2 °F /  21.8 °C 29.9in /  1011.4hPa NO 1.5mph /  2.4km/h 5mph /  8km/h 64% 0in /  0.0mm
00:24 84.7 °F /  29.3 °C 71.2 °F /  21.8 °C 29.9in /  1011.4hPa NO 2mph /  3.2km/h 3.1mph /  5km/h 64% 0in /  0.0mm
00:29 84.7 °F /  29.3 °C 71.2 °F /  21.8 °C 29.9in /  1011.4hPa NO 2mph /  3.2km/h 4.6mph /  7.4km/h 64% 0in /  0.0mm
00:34 84.6 °F /  29.2 °C 70.5 °F /  21.4 °C 29.9in /  1011.5hPa NO 1.8mph /  2.9km/h 5mph /  8km/h 63% 0in /  0.0mm
00:39 84.6 °F /  29.2 °C 69.6 °F /  20.9 °C 29.9in /  1011.5hPa NO 1.8mph /  2.9km/h 4.7mph /  7.6km/h 61.1% 0in /  0.0mm
00:44 84.4 °F /  29.1 °C 69.4 °F /  20.8 °C 29.9in /  1011.5hPa ONO 2mph /  3.2km/h 5mph /  8km/h 60.8% 0in /  0.0mm
00:49 84.4 °F /  29.1 °C 69.1 °F /  20.6 °C 29.9in /  1011.6hPa ONO 2mph /  3.2km/h 4mph /  6.4km/h 60.3% 0in /  0.0mm
00:54 84.2 °F /  29 °C 68.7 °F /  20.4 °C 29.9in /  1011.6hPa NO 1.8mph /  2.9km/h 3mph /  4.8km/h 60% 0in /  0.0mm
00:59 84 °F /  28.9 °C 68.7 °F /  20.4 °C 29.9in /  1011.6hPa NO 1.5mph /  2.4km/h 3.6mph /  5.8km/h 60.3% 0in /  0.0mm
01:04 84 °F /  28.9 °C 70.3 °F /  21.3 °C 29.9in /  1011.6hPa Calm   5.2mph /  8.4km/h 63.7% 0in /  0.0mm
01:09 84 °F /  28.9 °C 70.5 °F /  21.4 °C 29.9in /  1011.6hPa SSE 0.3mph /  0.5km/h 5mph /  8km/h 64.1% 0in /  0.0mm
01:14 84 °F /  28.9 °C 71.1 °F /  21.7 °C 29.9in /  1011.6hPa SSE 1.8mph /  2.9km/h 3mph /  4.8km/h 65% 0in /  0.0mm
01:19 84 °F /  28.9 °C 70.2 °F /  21.2 °C 29.9in /  1011.6hPa SSE 1.7mph /  2.8km/h 3.6mph /  5.8km/h 63.4% 0in /  0.0mm
01:24 83.8 °F /  28.8 °C 70.5 °F /  21.4 °C 29.9in /  1011.6hPa SSE 1.4mph /  2.2km/h 4mph /  6.4km/h 64.2% 0in /  0.0mm
01:29 83.8 °F /  28.8 °C 69.3 °F /  20.7 °C 29.9in /  1011.6hPa SO 1.4mph /  2.3km/h 4mph /  6.4km/h 61.8% 0in /  0.0mm
01:34 83.8 °F /  28.8 °C 69.1 °F /  20.6 °C 29.9in /  1011.7hPa SO 1.8mph /  2.9km/h 4.7mph /  7.6km/h 61% 0in /  0.0mm
01:39 83.8 °F /  28.8 °C 68.9 °F /  20.5 °C 29.9in /  1011.7hPa SO 1.8mph /  2.9km/h 5.8mph /  9.3km/h 61% 0in /  0.0mm
01:44 83.7 °F /  28.7 °C 68.7 °F /  20.4 °C 29.9in /  1011.7hPa SO 2mph /  3.2km/h 6mph /  9.7km/h 60.7% 0in /  0.0mm
01:49 83.7 °F /  28.7 °C 68.5 °F /  20.3 °C 29.9in /  1011.7hPa OSO 2.1mph /  3.3km/h 5mph /  8km/h 60.4% 0in /  0.0mm
01:54 83.8 °F /  28.8 °C 68.4 °F /  20.2 °C 29.9in /  1011.5hPa Oeste 2.4mph /  3.9km/h 5mph /  8km/h 59.9% 0in /  0.0mm
01:59 83.8 °F /  28.8 °C 68.2 °F /  20.1 °C 29.9in /  1011.5hPa SO 2.3mph /  3.7km/h 3.5mph /  5.6km/h 59.1% 0in /  0.0mm
02:04 84 °F /  28.9 °C 67.8 °F /  19.9 °C 29.9in /  1011.5hPa SO 1.8mph /  2.9km/h 3mph /  4.8km/h 58.3% 0in /  0.0mm
02:09 84 °F /  28.9 °C 67.6 °F /  19.8 °C 29.9in /  1011.5hPa SO 1.6mph /  2.5km/h 3.1mph /  5km/h 58.1% 0in /  0.0mm
02:14 84 °F /  28.9 °C 64.2 °F /  17.9 °C 29.9in /  1011.5hPa Calm   6.2mph /  10km/h 51.4% 0in /  0.0mm
02:19 84.2 °F /  29 °C 63.1 °F /  17.3 °C 29.9in /  1011.6hPa Sur 0.5mph /  0.8km/h 6mph /  9.7km/h 49.3% 0in /  0.0mm
02:24 84.4 °F /  29.1 °C 62.6 °F /  17 °C 29.9in /  1011.6hPa Sur 3.6mph /  5.8km/h 6.4mph /  10.3km/h 48.3% 0in /  0.0mm
02:29 84.2 °F /  29 °C 61.7 °F /  16.5 °C 29.9in /  1011.6hPa Sur 3.6mph /  5.8km/h 7mph /  11.3km/h 46.7% 0in /  0.0mm
02:34 84.4 °F /  29.1 °C 61 °F /  16.1 °C 29.9in /  1011.6hPa SSO 4mph /  6.4km/h 7mph /  11.3km/h 45.6% 0in /  0.0mm
02:39 84.6 °F /  29.2 °C 60.6 °F /  15.9 °C 29.9in /  1011.6hPa SO 4mph /  6.5km/h 6mph /  9.7km/h 44.8% 0in /  0.0mm
02:44 84.6 °F /  29.2 °C 60.3 °F /  15.7 °C 29.9in /  1011.6hPa SO 4mph /  6.5km/h 6mph /  9.7km/h 44.1% 0in /  0.0mm
02:49 84.6 °F /  29.2 °C 60.3 °F /  15.7 °C 29.9in /  1011.6hPa OSO 3.9mph /  6.3km/h 6mph /  9.7km/h 44% 0in /  0.0mm
02:54 84.6 °F /  29.2 °C 60.3 °F /  15.7 °C 29.9in /  1011.5hPa Oeste 3.1mph /  5km/h 5.2mph /  8.4km/h 44.1% 0in /  0.0mm
02:59 84.6 °F /  29.2 °C 60.8 °F /  16 °C 29.9in /  1011.5hPa Oeste 3mph /  4.8km/h 5mph /  8km/h 45% 0in /  0.0mm
03:04 84.2 °F /  29 °C 60.8 °F /  16 °C 29.9in /  1011.5hPa Oeste 2.4mph /  3.9km/h 4mph /  6.4km/h 45.4% 0in /  0.0mm
03:09 83.8 °F /  28.8 °C 60.6 °F /  15.9 °C 29.9in /  1011.5hPa Sur 2.4mph /  3.8km/h 5.9mph /  9.5km/h 45.5% 0in /  0.0mm
03:14 83.5 °F /  28.6 °C 61.7 °F /  16.5 °C 29.9in /  1011.5hPa ESE 2mph /  3.2km/h 6mph /  9.7km/h 47.8% 0in /  0.0mm
03:19 82.9 °F /  28.3 °C 61.3 °F /  16.3 °C 29.9in /  1011.5hPa ESE 2.1mph /  3.3km/h 5mph /  8km/h 48% 0in /  0.0mm
03:24 82.8 °F /  28.2 °C 60.6 °F /  15.9 °C 29.9in /  1011.5hPa ESE 2.4mph /  3.9km/h 3.1mph /  5km/h 47.3% 0in /  0.0mm
03:29 82.6 °F /  28.1 °C 61 °F /  16.1 °C 29.9in /  1011.5hPa ESE 2.3mph /  3.7km/h 3.5mph /  5.6km/h 48.2% 0in /  0.0mm
03:34 82.6 °F /  28.1 °C 61.5 °F /  16.4 °C 29.9in /  1011.5hPa ESE 1.8mph /  2.9km/h 2.4mph /  3.9km/h 49% 0in /  0.0mm
03:39 82.6 °F /  28.1 °C 61.3 °F /  16.3 °C 29.9in /  1011.5hPa ESE 1.8mph /  2.9km/h 3.5mph /  5.6km/h 48.9% 0in /  0.0mm
03:44 82.2 °F /  27.9 °C 61 °F /  16.1 °C 29.9in /  1011.5hPa ESE 1.8mph /  2.9km/h 3mph /  4.8km/h 48.6% 0in /  0.0mm
03:49 82 °F /  27.8 °C 61.7 °F /  16.5 °C 29.9in /  1011.7hPa ESE 1.7mph /  2.8km/h 3.6mph /  5.8km/h 50.1% 0in /  0.0mm
03:54 81.9 °F /  27.7 °C 61.9 °F /  16.6 °C 29.9in /  1011.7hPa ESE 1.4mph /  2.2km/h 4mph /  6.4km/h 50.7% 0in /  0.0mm
03:59 81.9 °F /  27.7 °C 61.3 °F /  16.3 °C 29.9in /  1011.7hPa ESE 1.5mph /  2.4km/h 4.6mph /  7.4km/h 49.8% 0in /  0.0mm
04:04 81.9 °F /  27.7 °C 61 °F /  16.1 °C 29.9in /  1011.7hPa SSE 1.8mph /  2.9km/h 6.2mph /  10km/h 49.3% 0in /  0.0mm
04:09 82 °F /  27.8 °C 61 °F /  16.1 °C 29.9in /  1011.6hPa SSE 2mph /  3.2km/h 6mph /  9.7km/h 49% 0in /  0.0mm
04:14 82 °F /  27.8 °C 61 °F /  16.1 °C 29.9in /  1011.6hPa SSE 3.1mph /  5km/h 5mph /  8km/h 49% 0in /  0.0mm
04:19 82 °F /  27.8 °C 61 °F /  16.1 °C 29.9in /  1011.7hPa SSE 3mph /  4.9km/h 5.2mph /  8.4km/h 49% 0in /  0.0mm
04:24 81.9 °F /  27.7 °C 60.8 °F /  16 °C 29.9in /  1011.7hPa SSE 2.9mph /  4.7km/h 5mph /  8km/h 49% 0in /  0.0mm
04:29 81.5 °F /  27.5 °C 60.4 °F /  15.8 °C 29.9in /  1011.7hPa SSE 2.9mph /  4.7km/h 5mph /  8km/h 49% 0in /  0.0mm
04:34 81.3 °F /  27.4 °C 60.3 °F /  15.7 °C 29.9in /  1011.7hPa Sur 2.9mph /  4.7km/h 5.4mph /  8.7km/h 49% 0in /  0.0mm
04:39 81.7 °F /  27.6 °C 60.6 °F /  15.9 °C 29.9in /  1011.6hPa SSO 3mph /  4.9km/h 7.4mph /  11.9km/h 48.8% 0in /  0.0mm
04:44 82 °F /  27.8 °C 60.3 °F /  15.7 °C 29.9in /  1011.6hPa SO 4mph /  6.4km/h 8.1mph /  13km/h 47.6% 0in /  0.0mm
04:49 82.6 °F /  28.1 °C 59.9 °F /  15.5 °C 29.9in /  1011.6hPa SO 4mph /  6.5km/h 8mph /  12.9km/h 46.3% 0in /  0.0mm
04:54 82.9 °F /  28.3 °C 59.7 °F /  15.4 °C 29.9in /  1011.6hPa OSO 4.3mph /  6.9km/h 7mph /  11.3km/h 45.7% 0in /  0.0mm
04:59 82.9 °F /  28.3 °C 59 °F /  15 °C 29.9in /  1011.6hPa SSO 4.2mph /  6.8km/h 11.2mph /  18km/h 44.3% 0in /  0.0mm
05:04 83.3 °F /  28.5 °C 57.6 °F /  14.2 °C 29.9in /  1011.6hPa SO 4mph /  6.5km/h 12mph /  19.3km/h 41.9% 0in /  0.0mm
05:09 83.8 °F /  28.8 °C 57 °F /  13.9 °C 29.9in /  1011.6hPa SO 4.2mph /  6.7km/h 10mph /  16.1km/h 40.2% 0in /  0.0mm
05:14 84 °F /  28.9 °C 56.8 °F /  13.8 °C 29.9in /  1011.6hPa OSO 5.2mph /  8.4km/h 7mph /  11.3km/h 39.6% 0in /  0.0mm
05:19 84.2 °F /  29 °C 55.9 °F /  13.3 °C 29.9in /  1011.7hPa SSO 5.1mph /  8.2km/h 8.1mph /  13km/h 38.1% 0in /  0.0mm
05:24 84.4 °F /  29.1 °C 56.1 °F /  13.4 °C 29.9in /  1011.7hPa OSO 4.3mph /  6.9km/h 8mph /  12.9km/h 38.1% 0in /  0.0mm
05:29 84.4 °F /  29.1 °C 55.9 °F /  13.3 °C 29.9in /  1011.7hPa SSO 4mph /  6.5km/h 5mph /  8km/h 38% 0in /  0.0mm
05:34 84.2 °F /  29 °C 55.9 °F /  13.3 °C 29.9in /  1011.7hPa SO 2.4mph /  3.9km/h 5mph /  8km/h 38.2% 0in /  0.0mm
05:39 84 °F /  28.9 °C 56.3 °F /  13.5 °C 29.9in /  1011.7hPa Oeste 2.3mph /  3.7km/h 5mph /  8km/h 38.8% 0in /  0.0mm
05:44 83.8 °F /  28.8 °C 55.9 °F /  13.3 °C 29.9in /  1011.7hPa OSO 1.8mph /  2.9km/h 5.2mph /  8.4km/h 38.6% 0in /  0.0mm
05:49 83.7 °F /  28.7 °C 55.8 °F /  13.2 °C 29.9in /  1011.7hPa SO 1.9mph /  3km/h 5mph /  8km/h 38.5% 0in /  0.0mm
05:54 83.3 °F /  28.5 °C 54.9 °F /  12.7 °C 29.9in /  1011.7hPa SO 2.4mph /  3.9km/h 5mph /  8km/h 37.7% 0in /  0.0mm
05:59 83.5 °F /  28.6 °C 54 °F /  12.2 °C 29.9in /  1011.7hPa SO 2.6mph /  4.2km/h 6.4mph /  10.3km/h 36.2% 0in /  0.0mm
06:04 83.8 °F /  28.8 °C 53.1 °F /  11.7 °C 29.9in /  1011.9hPa SO 3.6mph /  5.8km/h 7mph /  11.3km/h 34.8% 0in /  0.0mm
06:09 84.2 °F /  29 °C 52.3 °F /  11.3 °C 29.9in /  1011.9hPa SO 3.7mph /  6km/h 8.7mph /  14km/h 33.5% 0in /  0.0mm
06:14 84.6 °F /  29.2 °C 51.8 °F /  11 °C 29.9in /  1011.9hPa SO 4.7mph /  7.6km/h 9.2mph /  14.8km/h 32.5% 0in /  0.0mm
06:19 84.7 °F /  29.3 °C 51.8 °F /  11 °C 29.9in /  1011.9hPa SSO 4.8mph /  7.7km/h 9mph /  14.5km/h 32% 0in /  0.0mm
06:24 84.9 °F /  29.4 °C 51.4 °F /  10.8 °C 29.9in /  1011.9hPa SSO 5.2mph /  8.4km/h 11.8mph /  19km/h 31.6% 0in /  0.0mm
06:29 85.1 °F /  29.5 °C 51.1 °F /  10.6 °C 29.9in /  1011.9hPa SO 5.3mph /  8.6km/h 12mph /  19.3km/h 31% 0in /  0.0mm
06:34 85.3 °F /  29.6 °C 51.4 °F /  10.8 °C 29.9in /  1012.0hPa SO 6.2mph /  10km/h 10mph /  16.1km/h 31.3% 0in /  0.0mm
06:39 85.3 °F /  29.6 °C 51.8 °F /  11 °C 29.9in /  1012.0hPa SO 6.2mph /  9.9km/h 9mph /  14.5km/h 31.7% 0in /  0.0mm
06:44 85.3 °F /  29.6 °C 51.6 °F /  10.9 °C 29.9in /  1012.0hPa SO 5.9mph /  9.5km/h 9.2mph /  14.8km/h 31.5% 0in /  0.0mm
06:49 85.1 °F /  29.5 °C 52 °F /  11.1 °C 29.9in /  1012.2hPa SO 5.8mph /  9.4km/h 9.7mph /  15.6km/h 32% 0in /  0.0mm
06:54 84.9 °F /  29.4 °C 51.8 °F /  11 °C 29.9in /  1012.2hPa SSO 5.4mph /  8.7km/h 10.4mph /  16.7km/h 31.9% 0in /  0.0mm
06:59 84.9 °F /  29.4 °C 51.6 °F /  10.9 °C 29.9in /  1012.2hPa SSO 5.6mph /  9km/h 10.4mph /  16.7km/h 31.7% 0in /  0.0mm
07:04 84.9 °F /  29.4 °C 51.8 °F /  11 °C 29.9in /  1012.3hPa SSO 6.2mph /  10km/h 11.2mph /  18km/h 32% 0in /  0.0mm
07:09 84.9 °F /  29.4 °C 51.8 °F /  11 °C 29.9in /  1012.3hPa SSO 6.3mph /  10.2km/h 12mph /  19.3km/h 32% 0in /  0.0mm
07:14 84.9 °F /  29.4 °C 51.8 °F /  11 °C 29.9in /  1012.3hPa SSO 6.9mph /  11.1km/h 12mph /  19.3km/h 32% 0in /  0.0mm
07:19 85.3 °F /  29.6 °C 52 °F /  11.1 °C 29.9in /  1012.7hPa SSO 6.8mph /  11km/h 10mph /  16.1km/h 32% 0in /  0.0mm
07:24 85.3 °F /  29.6 °C 52.2 °F /  11.2 °C 29.9in /  1012.7hPa SSO 6.4mph /  10.3km/h 10.4mph /  16.7km/h 32% 0in /  0.0mm
07:29 85.5 °F /  29.7 °C 52.9 °F /  11.6 °C 29.9in /  1012.7hPa SO 6.5mph /  10.4km/h 11.5mph /  18.5km/h 33% 0in /  0.0mm
07:34 85.5 °F /  29.7 °C 53.1 °F /  11.7 °C 29.9in /  1012.8hPa SO 6.9mph /  11.1km/h 12mph /  19.3km/h 33% 0in /  0.0mm
07:39 85.5 °F /  29.7 °C 53.1 °F /  11.7 °C 29.9in /  1012.8hPa SSO 7mph /  11.3km/h 12mph /  19.3km/h 33% 0in /  0.0mm
07:44 85.5 °F /  29.7 °C 53.6 °F /  12 °C 29.9in /  1012.8hPa SO 7.6mph /  12.2km/h 12mph /  19.3km/h 33.8% 0in /  0.0mm
07:49 85.3 °F /  29.6 °C 53.8 °F /  12.1 °C 29.9in /  1013.0hPa SSO 7.7mph /  12.4km/h 12mph /  19.3km/h 34% 0in /  0.0mm
07:54 85.3 °F /  29.6 °C 53.8 °F /  12.1 °C 29.9in /  1013.0hPa SSO 8.1mph /  13km/h 15mph /  24.1km/h 34% 0in /  0.0mm
07:59 85.3 °F /  29.6 °C 53.8 °F /  12.1 °C 29.9in /  1013.0hPa SO 8.2mph /  13.2km/h 15mph /  24.1km/h 34% 0in /  0.0mm
08:04 85.3 °F /  29.6 °C 54.3 °F /  12.4 °C 29.9in /  1013.2hPa SSO 8.7mph /  14km/h 14mph /  22.5km/h 34.8% 0in /  0.0mm
08:09 85.5 °F /  29.7 °C 54.7 °F /  12.6 °C 29.9in /  1013.2hPa SSO 8.5mph /  13.7km/h 12.7mph /  20.4km/h 35% 0in /  0.0mm
08:14 85.6 °F /  29.8 °C 54.7 °F /  12.6 °C 29.9in /  1013.2hPa SSO 7.6mph /  12.2km/h 13mph /  20.9km/h 35% 0in /  0.0mm
08:19 85.6 °F /  29.8 °C 54.9 °F /  12.7 °C 29.9in /  1013.3hPa SSO 7.7mph /  12.4km/h 13mph /  20.9km/h 35% 0in /  0.0mm
08:24 85.6 °F /  29.8 °C 55.2 °F /  12.9 °C 29.9in /  1013.3hPa SSO 8.5mph /  13.7km/h 13.8mph /  22.2km/h 35.6% 0in /  0.0mm
08:29 85.6 °F /  29.8 °C 55.6 °F /  13.1 °C 29.9in /  1013.3hPa SSO 8.5mph /  13.7km/h 14mph /  22.5km/h 36% 0in /  0.0mm
08:34 85.6 °F /  29.8 °C 55.6 °F /  13.1 °C 29.9in /  1013.5hPa SSO 8.7mph /  14km/h 14mph /  22.5km/h 36% 0in /  0.0mm
08:39 85.8 °F /  29.9 °C 56.5 °F /  13.6 °C 29.9in /  1013.5hPa SSO 8.5mph /  13.7km/h 13mph /  20.9km/h 37% 0in /  0.0mm
08:44 85.8 °F /  29.9 °C 56.7 °F /  13.7 °C 29.9in /  1013.5hPa SSO 7.6mph /  12.2km/h 12mph /  19.3km/h 37% 0in /  0.0mm
08:49 86 °F /  30 °C 56.8 °F /  13.8 °C 29.9in /  1013.6hPa SSO 7.5mph /  12.1km/h 12mph /  19.3km/h 37.1% 0in /  0.0mm
08:54 86.4 °F /  30.2 °C 57.7 °F /  14.3 °C 29.9in /  1013.6hPa SSO 6.9mph /  11.1km/h 12mph /  19.3km/h 37.9% 0in /  0.0mm
08:59 86.5 °F /  30.3 °C 57.9 °F /  14.4 °C 29.9in /  1013.6hPa SO 6.9mph /  11.1km/h 12mph /  19.3km/h 38% 0in /  0.0mm
09:04 86.5 °F /  30.3 °C 58.1 °F /  14.5 °C 29.9in /  1013.7hPa SO 6.9mph /  11.1km/h 9mph /  14.5km/h 38% 0in /  0.0mm
09:09 86.9 °F /  30.5 °C 58.3 °F /  14.6 °C 29.9in /  1013.7hPa SSO 6.6mph /  10.7km/h 9.7mph /  15.6km/h 38% 0in /  0.0mm
09:14 87.3 °F /  30.7 °C 58.5 °F /  14.7 °C 29.9in /  1013.7hPa SO 5.2mph /  8.4km/h 10mph /  16.1km/h 38% 0in /  0.0mm
09:19 87.4 °F /  30.8 °C 58.6 °F /  14.8 °C 29.9in /  1013.8hPa SO 5.2mph /  8.4km/h 9.2mph /  14.8km/h 38% 0in /  0.0mm
09:24 87.4 °F /  30.8 °C 58.6 °F /  14.8 °C 29.9in /  1013.8hPa SO 5.4mph /  8.7km/h 10.7mph /  17.2km/h 38% 0in /  0.0mm
09:29 87.6 °F /  30.9 °C 59 °F /  15 °C 29.9in /  1013.8hPa SO 5.5mph /  8.8km/h 11.4mph /  18.3km/h 38% 0in /  0.0mm
09:34 87.8 °F /  31 °C 59.2 °F /  15.1 °C 29.9in /  1013.8hPa SO 5.9mph /  9.5km/h 12mph /  19.3km/h 38% 0in /  0.0mm
09:39 88 °F /  31.1 °C 59.2 °F /  15.1 °C 29.9in /  1013.8hPa SSO 5.9mph /  9.5km/h 10mph /  16.1km/h 38% 0in /  0.0mm
09:44 88.3 °F /  31.3 °C 59.5 °F /  15.3 °C 29.9in /  1013.8hPa SO 5.9mph /  9.5km/h 9mph /  14.5km/h 38.1% 0in /  0.0mm
09:49 88.5 °F /  31.4 °C 59.7 °F /  15.4 °C 29.9in /  1013.9hPa SO 5.8mph /  9.3km/h 8.5mph /  13.7km/h 38% 0in /  0.0mm
09:54 88.9 °F /  31.6 °C 59.9 °F /  15.5 °C 29.9in /  1013.9hPa SO 5.2mph /  8.4km/h 10.2mph /  16.4km/h 38% 0in /  0.0mm
09:59 88.9 °F /  31.6 °C 60.1 °F /  15.6 °C 29.9in /  1013.9hPa SO 5.3mph /  8.6km/h 10.4mph /  16.7km/h 38% 0in /  0.0mm
10:04 89.1 °F /  31.7 °C 60.6 °F /  15.9 °C 29.9in /  1014.0hPa SO 5.9mph /  9.5km/h 10.4mph /  16.7km/h 38.5% 0in /  0.0mm
10:09 89.4 °F /  31.9 °C 61.2 °F /  16.2 °C 29.9in /  1014.0hPa SO 5.9mph /  9.5km/h 10mph /  16.1km/h 39% 0in /  0.0mm
10:14 90 °F /  32.2 °C 61.5 °F /  16.4 °C 29.9in /  1014.0hPa SO 5.9mph /  9.5km/h 10.4mph /  16.7km/h 39% 0in /  0.0mm
10:19 90.1 °F /  32.3 °C 61.9 °F /  16.6 °C 29.9in /  1014.0hPa SO 5.9mph /  9.5km/h 10mph /  16.1km/h 39% 0in /  0.0mm
10:24 90.5 °F /  32.5 °C 62.2 °F /  16.8 °C 29.9in /  1013.9hPa Oeste 5.9mph /  9.5km/h 13mph /  20.9km/h 39% 0in /  0.0mm
10:29 90.9 °F /  32.7 °C 63 °F /  17.2 °C 29.9in /  1013.9hPa OSO 6mph /  9.6km/h 13mph /  20.9km/h 39.7% 0in /  0.0mm
10:34 91 °F /  32.8 °C 63.3 °F /  17.4 °C 29.9in /  1014.0hPa OSO 6.4mph /  10.3km/h 13mph /  20.9km/h 40% 0in /  0.0mm
10:39 91.2 °F /  32.9 °C 63.5 °F /  17.5 °C 29.9in /  1014.0hPa OSO 6.5mph /  10.4km/h 13mph /  20.9km/h 40% 0in /  0.0mm
10:44 91.4 °F /  33 °C 63.7 °F /  17.6 °C 29.9in /  1014.0hPa OSO 6.9mph /  11.1km/h 13.8mph /  22.2km/h 39.9% 0in /  0.0mm
10:49 91.6 °F /  33.1 °C 63.5 °F /  17.5 °C 29.9in /  1014.1hPa OSO 7mph /  11.2km/h 14mph /  22.5km/h 39.7% 0in /  0.0mm
10:54 91.8 °F /  33.2 °C 63.9 °F /  17.7 °C 29.9in /  1014.1hPa OSO 7.4mph /  11.9km/h 12.7mph /  20.4km/h 39.9% 0in /  0.0mm
10:59 91.9 °F /  33.3 °C 63.5 °F /  17.5 °C 29.9in /  1014.1hPa Oeste 7.5mph /  12km/h 13mph /  20.9km/h 39.1% 0in /  0.0mm
11:04 92.3 °F /  33.5 °C 63.3 °F /  17.4 °C 29.9in /  1014.1hPa ONO 7.6mph /  12.2km/h 13mph /  20.9km/h 38.5% 0in /  0.0mm
11:09 92.5 °F /  33.6 °C 63.9 °F /  17.7 °C 29.9in /  1014.0hPa Oeste 7.4mph /  11.9km/h 13mph /  20.9km/h 38.8% 0in /  0.0mm
11:14 92.8 °F /  33.8 °C 63.7 °F /  17.6 °C 29.9in /  1014.0hPa OSO 6.2mph /  10km/h 15mph /  24.1km/h 38.1% 0in /  0.0mm
11:19 92.8 °F /  33.8 °C 63.5 °F /  17.5 °C 29.9in /  1014.0hPa OSO 6.4mph /  10.3km/h 15mph /  24.1km/h 38% 0in /  0.0mm
11:24 92.8 °F /  33.8 °C 63.5 °F /  17.5 °C 29.9in /  1014.0hPa OSO 7.4mph /  11.9km/h 12mph /  19.3km/h 38% 0in /  0.0mm
11:29 93.2 °F /  34 °C 63.7 °F /  17.6 °C 29.9in /  1014.0hPa Oeste 7.3mph /  11.8km/h 12mph /  19.3km/h 37.8% 0in /  0.0mm
11:34 93.4 °F /  34.1 °C 63.3 °F /  17.4 °C 29.9in /  1014.0hPa Oeste 6.9mph /  11.1km/h 13mph /  20.9km/h 37.2% 0in /  0.0mm
11:39 93.7 °F /  34.3 °C 63 °F /  17.2 °C 29.9in /  1013.9hPa OSO 6.8mph /  11km/h 13mph /  20.9km/h 36.3% 0in /  0.0mm
11:44 93.9 °F /  34.4 °C 62.8 °F /  17.1 °C 29.9in /  1013.9hPa OSO 6.4mph /  10.3km/h 13.8mph /  22.2km/h 35.8% 0in /  0.0mm
11:49 94.1 °F /  34.5 °C 63 °F /  17.2 °C 29.9in /  1013.9hPa OSO 6.6mph /  10.6km/h 14mph /  22.5km/h 36% 0in /  0.0mm
11:54 94.1 °F /  34.5 °C 63.1 °F /  17.3 °C 29.9in /  1013.9hPa Oeste 7.6mph /  12.2km/h 12mph /  19.3km/h 36% 0in /  0.0mm
11:59 94.6 °F /  34.8 °C 62.8 °F /  17.1 °C 29.9in /  1013.9hPa Oeste 7.2mph /  11.6km/h 11.8mph /  19km/h 35% 0in /  0.0mm
12:04 94.8 °F /  34.9 °C 62.8 °F /  17.1 °C 29.9in /  1013.9hPa ONO 5.4mph /  8.7km/h 13.5mph /  21.7km/h 35% 0in /  0.0mm
12:09 95 °F /  35 °C 62.4 °F /  16.9 °C 29.9in /  1013.8hPa Oeste 5.5mph /  8.9km/h 14mph /  22.5km/h 34.2% 0in /  0.0mm
12:14 95.2 °F /  35.1 °C 62.4 °F /  16.9 °C 29.9in /  1013.8hPa Oeste 6.4mph /  10.3km/h 14mph /  22.5km/h 34% 0in /  0.0mm
12:19 95.4 °F /  35.2 °C 62.4 °F /  16.9 °C 29.9in /  1013.8hPa Oeste 6.3mph /  10.2km/h 12mph /  19.3km/h 33.9% 0in /  0.0mm
12:24 95.5 °F /  35.3 °C 62.1 °F /  16.7 °C 29.9in /  1013.6hPa Oeste 5.9mph /  9.5km/h 10.7mph /  17.2km/h 33.2% 0in /  0.0mm
12:29 95.9 °F /  35.5 °C 62.1 °F /  16.7 °C 29.9in /  1013.6hPa OSO 5.9mph /  9.5km/h 14mph /  22.5km/h 32.9% 0in /  0.0mm
12:34 96.3 °F /  35.7 °C 61.7 °F /  16.5 °C 29.9in /  1013.7hPa OSO 5.9mph /  9.5km/h 14mph /  22.5km/h 32.3% 0in /  0.0mm
12:39 96.1 °F /  35.6 °C 61.5 °F /  16.4 °C 29.9in /  1013.7hPa OSO 6.2mph /  9.9km/h 14mph /  22.5km/h 32% 0in /  0.0mm
12:44 96.1 °F /  35.6 °C 61.5 °F /  16.4 °C 29.9in /  1013.7hPa Oeste 7.4mph /  11.9km/h 13mph /  20.9km/h 32.1% 0in /  0.0mm
12:49 96.3 °F /  35.7 °C 61.7 °F /  16.5 °C 29.9in /  1013.7hPa OSO 7.1mph /  11.5km/h 11mph /  17.7km/h 32% 0in /  0.0mm
12:54 96.6 °F /  35.9 °C 61.3 °F /  16.3 °C 29.9in /  1013.4hPa OSO 5.9mph /  9.5km/h 11mph /  17.7km/h 31.3% 0in /  0.0mm
12:59 96.8 °F /  36 °C 60.3 °F /  15.7 °C 29.9in /  1013.4hPa SSO 6mph /  9.6km/h 10.4mph /  16.7km/h 30.1% 0in /  0.0mm
13:04 97 °F /  36.1 °C 59.9 °F /  15.5 °C 29.9in /  1013.4hPa SO 6.2mph /  10km/h 10mph /  16.1km/h 29.5% 0in /  0.0mm
13:09 97.2 °F /  36.2 °C 59.7 °F /  15.4 °C 29.9in /  1013.3hPa SO 6mph /  9.6km/h 9mph /  14.5km/h 29.1% 0in /  0.0mm
13:14 97.3 °F /  36.3 °C 59.4 °F /  15.2 °C 29.9in /  1013.3hPa OSO 4.7mph /  7.6km/h 8.5mph /  13.7km/h 28.4% 0in /  0.0mm
13:19 97.7 °F /  36.5 °C 59 °F /  15 °C 29.9in /  1013.3hPa SSO 4.6mph /  7.4km/h 9mph /  14.5km/h 28% 0in /  0.0mm
13:24 97.9 °F /  36.6 °C 58.8 °F /  14.9 °C 29.9in /  1013.1hPa SSE 4mph /  6.5km/h 7mph /  11.3km/h 27.6% 0in /  0.0mm
13:29 98.1 °F /  36.7 °C 59.4 °F /  15.2 °C 29.9in /  1013.1hPa SE 3.9mph /  6.2km/h 7mph /  11.3km/h 28% 0in /  0.0mm
13:34 98.6 °F /  37 °C 59.7 °F /  15.4 °C 29.9in /  1013.2hPa NO 3.1mph /  5km/h 8.7mph /  14km/h 27.9% 0in /  0.0mm
13:39 98.8 °F /  37.1 °C 58.8 °F /  14.9 °C 29.9in /  1013.2hPa NNO 3.3mph /  5.3km/h 9.2mph /  14.8km/h 26.9% 0in /  0.0mm
13:44 98.8 °F /  37.1 °C 58.1 °F /  14.5 °C 29.9in /  1013.2hPa NNO 4.3mph /  6.9km/h 8.1mph /  13km/h 26.1% 0in /  0.0mm
13:49 99 °F /  37.2 °C 58.1 °F /  14.5 °C 29.9in /  1013.2hPa NNE 4.3mph /  6.9km/h 8.1mph /  13km/h 26% 0in /  0.0mm
13:54 99 °F /  37.2 °C 58.1 °F /  14.5 °C 29.9in /  1013.0hPa SE 4.3mph /  6.9km/h 8mph /  12.9km/h 26% 0in /  0.0mm
13:59 99.1 °F /  37.3 °C 58.3 °F /  14.6 °C 29.9in /  1013.0hPa Sur 4.2mph /  6.7km/h 7mph /  11.3km/h 26% 0in /  0.0mm
14:04 99.7 °F /  37.6 °C 58.6 °F /  14.8 °C 29.9in /  1013.0hPa NE 3.6mph /  5.8km/h 9.7mph /  15.6km/h 26% 0in /  0.0mm
14:09 99.9 °F /  37.7 °C 58.8 °F /  14.9 °C 29.9in /  1012.8hPa NE 3.9mph /  6.3km/h 10mph /  16.1km/h 26% 0in /  0.0mm
14:14 99.9 °F /  37.7 °C 58.8 °F /  14.9 °C 29.9in /  1012.8hPa NNE 5.4mph /  8.7km/h 10mph /  16.1km/h 26% 0in /  0.0mm
14:19 100.4 °F /  38 °C 59.5 °F /  15.3 °C 29.9in /  1012.8hPa NNE 5.1mph /  8.2km/h 12.5mph /  20.1km/h 26.2% 0in /  0.0mm
14:24 100.6 °F /  38.1 °C 62.6 °F /  17 °C 29.9in /  1012.6hPa ENE 3.6mph /  5.8km/h 18.5mph /  29.8km/h 29.2% 0in /  0.0mm
14:29 99.9 °F /  37.7 °C 63.1 °F /  17.3 °C 29.9in /  1012.6hPa ENE 4.5mph /  7.2km/h 19.7mph /  31.7km/h 30.3% 0in /  0.0mm
14:34 99 °F /  37.2 °C 63.3 °F /  17.4 °C 29.9in /  1012.6hPa ENE 9.7mph /  15.6km/h 20mph /  32.2km/h 31.4% 0in /  0.0mm
14:39 98.6 °F /  37 °C 63.7 °F /  17.6 °C 29.9in /  1012.5hPa ENE 9.8mph /  15.8km/h 20.7mph /  33.3km/h 32% 0in /  0.0mm
14:44 98.8 °F /  37.1 °C 63.9 °F /  17.7 °C 29.9in /  1012.5hPa ENE 10.7mph /  17.2km/h 21mph /  33.8km/h 32% 0in /  0.0mm
14:49 98.8 °F /  37.1 °C 63.9 °F /  17.7 °C 29.9in /  1012.5hPa ENE 10.4mph /  16.7km/h 17.3mph /  27.8km/h 32% 0in /  0.0mm
14:54 99 °F /  37.2 °C 64.8 °F /  18.2 °C 29.9in /  1012.4hPa ENE 8.5mph /  13.7km/h 20.8mph /  33.5km/h 33% 0in /  0.0mm
14:59 98.4 °F /  36.9 °C 65.1 °F /  18.4 °C 29.9in /  1012.4hPa ENE 9.1mph /  14.6km/h 21mph /  33.8km/h 34% 0in /  0.0mm
15:04 98.1 °F /  36.7 °C 65.3 °F /  18.5 °C 29.9in /  1012.5hPa ENE 11.4mph /  18.3km/h 20.1mph /  32.3km/h 34.6% 0in /  0.0mm
15:09 97.5 °F /  36.4 °C 65.3 °F /  18.5 °C 29.9in /  1012.5hPa NE 11.4mph /  18.4km/h 24.2mph /  38.9km/h 35% 0in /  0.0mm
15:14 97.2 °F /  36.2 °C 65.5 °F /  18.6 °C 29.9in /  1012.5hPa NE 11.8mph /  19km/h 24mph /  38.6km/h 35.6% 0in /  0.0mm
15:19 97.2 °F /  36.2 °C 65.7 °F /  18.7 °C 29.9in /  1012.5hPa ENE 11.6mph /  18.7km/h 22mph /  35.4km/h 36% 0in /  0.0mm
15:24 97.3 °F /  36.3 °C 65.8 °F /  18.8 °C 29.9in /  1012.5hPa ENE 10.7mph /  17.2km/h 19mph /  30.6km/h 36% 0in /  0.0mm
15:29 96.8 °F /  36 °C 66 °F /  18.9 °C 29.9in /  1012.5hPa ENE 10.7mph /  17.3km/h 19.7mph /  31.7km/h 36.5% 0in /  0.0mm
15:34 97 °F /  36.1 °C 66.2 °F /  19 °C 29.9in /  1012.5hPa ENE 11.2mph /  18km/h 20mph /  32.2km/h 36.9% 0in /  0.0mm
15:39 97 °F /  36.1 °C 66.4 °F /  19.1 °C 29.9in /  1012.4hPa ENE 10.9mph /  17.6km/h 17.5mph /  28.2km/h 37% 0in /  0.0mm
15:44 97 °F /  36.1 °C 66.4 °F /  19.1 °C 29.9in /  1012.4hPa NE 9.2mph /  14.8km/h 17.3mph /  27.8km/h 37.2% 0in /  0.0mm
15:49 96.4 °F /  35.8 °C 66 °F /  18.9 °C 29.9in /  1012.4hPa NE 9.3mph /  15km/h 17.5mph /  28.2km/h 37% 0in /  0.0mm
15:54 96.4 °F /  35.8 °C 66 °F /  18.9 °C 29.9in /  1012.4hPa NE 10mph /  16.1km/h 18.4mph /  29.6km/h 37% 0in /  0.0mm
15:59 96.1 °F /  35.6 °C 66 °F /  18.9 °C 29.9in /  1012.4hPa ENE 10.3mph /  16.6km/h 18.5mph /  29.8km/h 37.6% 0in /  0.0mm
16:04 95.7 °F /  35.4 °C 66 °F /  18.9 °C 29.9in /  1012.4hPa NE 11.8mph /  19km/h 19mph /  30.6km/h 38.1% 0in /  0.0mm
16:09 95.5 °F /  35.3 °C 66.2 °F /  19 °C 29.9in /  1012.4hPa NE 11.9mph /  19.2km/h 21.9mph /  35.2km/h 38.4% 0in /  0.0mm
16:14 95.4 °F /  35.2 °C 66.4 °F /  19.1 °C 29.9in /  1012.4hPa NE 12.5mph /  20.1km/h 22mph /  35.4km/h 38.7% 0in /  0.0mm
16:19 95.5 °F /  35.3 °C 66 °F /  18.9 °C 29.9in /  1012.4hPa NE 12.3mph /  19.8km/h 21mph /  33.8km/h 38.3% 0in /  0.0mm
16:24 95.5 °F /  35.3 °C 66.4 °F /  19.1 °C 29.9in /  1012.4hPa NE 11.4mph /  18.4km/h 21.9mph /  35.2km/h 38.7% 0in /  0.0mm
16:29 95.2 °F /  35.1 °C 65.8 °F /  18.8 °C 29.9in /  1012.4hPa NE 11.7mph /  18.8km/h 25.6mph /  41.2km/h 38.3% 0in /  0.0mm
16:34 94.6 °F /  34.8 °C 65.5 °F /  18.6 °C 29.9in /  1012.4hPa NE 13mph /  20.9km/h 26mph /  41.8km/h 38.6% 0in /  0.0mm
16:39 94.6 °F /  34.8 °C 65.7 °F /  18.7 °C 29.9in /  1012.3hPa NE 12.8mph /  20.6km/h 20.4mph /  32.8km/h 38.9% 0in /  0.0mm
16:44 94.6 °F /  34.8 °C 65.5 °F /  18.6 °C 29.9in /  1012.3hPa NE 11.8mph /  19km/h 21mph /  33.8km/h 38.6% 0in /  0.0mm
16:49 94.5 °F /  34.7 °C 65.7 °F /  18.7 °C 29.9in /  1012.3hPa NE 12mph /  19.3km/h 21mph /  33.8km/h 39% 0in /  0.0mm
16:54 94.3 °F /  34.6 °C 65.3 °F /  18.5 °C 29.9in /  1012.3hPa NE 13mph /  20.9km/h 22.5mph /  36.2km/h 38.7% 0in /  0.0mm
16:59 94.3 °F /  34.6 °C 65.1 °F /  18.4 °C 29.9in /  1012.3hPa ENE 13.1mph /  21.1km/h 23mph /  37km/h 38.4% 0in /  0.0mm
17:04 94.1 °F /  34.5 °C 64.9 °F /  18.3 °C 29.9in /  1012.3hPa NE 13.5mph /  21.7km/h 22.3mph /  35.9km/h 38.5% 0in /  0.0mm
17:09 94.1 °F /  34.5 °C 64.8 °F /  18.2 °C 29.9in /  1012.1hPa NE 13.4mph /  21.6km/h 22mph /  35.4km/h 38.2% 0in /  0.0mm
17:14 94.1 °F /  34.5 °C 64.6 °F /  18.1 °C 29.9in /  1012.1hPa NE 13mph /  20.9km/h 22mph /  35.4km/h 38% 0in /  0.0mm
17:19 94.1 °F /  34.5 °C 64.6 °F /  18.1 °C 29.9in /  1012.1hPa NE 12.9mph /  20.8km/h 18.4mph /  29.6km/h 37.9% 0in /  0.0mm
17:24 94.3 °F /  34.6 °C 64.6 °F /  18.1 °C 29.9in /  1012.0hPa NE 12.3mph /  19.8km/h 18.5mph /  29.8km/h 37.8% 0in /  0.0mm
17:29 94.3 °F /  34.6 °C 64.8 °F /  18.2 °C 29.9in /  1012.0hPa NE 12mph /  19.3km/h 19mph /  30.6km/h 38% 0in /  0.0mm
17:34 94.1 °F /  34.5 °C 64.4 °F /  18 °C 29.9in /  1012.0hPa NE 10.2mph /  16.4km/h 24.2mph /  38.9km/h 37.8% 0in /  0.0mm
17:39 93.9 °F /  34.4 °C 64.6 °F /  18.1 °C 29.9in /  1012.0hPa NE 10.4mph /  16.8km/h 24mph /  38.6km/h 38% 0in /  0.0mm
17:44 94.3 °F /  34.6 °C 64.8 °F /  18.2 °C 29.9in /  1012.0hPa NE 11.8mph /  19km/h 19.2mph /  30.9km/h 38% 0in /  0.0mm
17:49 94.1 °F /  34.5 °C 64.6 °F /  18.1 °C 29.9in /  1012.0hPa NE 11.8mph /  19km/h 20mph /  32.2km/h 38% 0in /  0.0mm
17:54 93.9 °F /  34.4 °C 64.6 °F /  18.1 °C 29.9in /  1011.9hPa NE 11.8mph /  19km/h 20mph /  32.2km/h 38.1% 0in /  0.0mm
17:59 94.1 °F /  34.5 °C 64.9 °F /  18.3 °C 29.9in /  1011.9hPa NE 11.6mph /  18.7km/h 19mph /  30.6km/h 38.4% 0in /  0.0mm
18:04 93.9 °F /  34.4 °C 65.1 °F /  18.4 °C 29.9in /  1011.9hPa NE 10.7mph /  17.2km/h 18mph /  29km/h 38.9% 0in /  0.0mm
18:09 93.7 °F /  34.3 °C 64.9 °F /  18.3 °C 29.9in /  1011.9hPa NE 10.6mph /  17.1km/h 19.6mph /  31.5km/h 38.8% 0in /  0.0mm
18:14 93.6 °F /  34.2 °C 64.9 °F /  18.3 °C 29.9in /  1011.9hPa NE 10.2mph /  16.4km/h 20mph /  32.2km/h 39.1% 0in /  0.0mm
18:19 93.6 °F /  34.2 °C 64.9 °F /  18.3 °C 29.9in /  1011.9hPa NE 10.1mph /  16.3km/h 16.1mph /  25.9km/h 39.1% 0in /  0.0mm
18:24 93.6 °F /  34.2 °C 64.9 °F /  18.3 °C 29.9in /  1011.9hPa ENE 9.7mph /  15.6km/h 17.3mph /  27.8km/h 39% 0in /  0.0mm
18:29 93.6 °F /  34.2 °C 64.9 °F /  18.3 °C 29.9in /  1011.9hPa ENE 9.5mph /  15.3km/h 17mph /  27.4km/h 39% 0in /  0.0mm
18:34 93.6 °F /  34.2 °C 65.1 °F /  18.4 °C 29.9in /  1011.9hPa NE 8.7mph /  14km/h 16.1mph /  25.9km/h 39.3% 0in /  0.0mm
18:39 93.4 °F /  34.1 °C 65.3 °F /  18.5 °C 29.9in /  1011.8hPa NE 9mph /  14.5km/h 16.1mph /  25.9km/h 40% 0in /  0.0mm
18:44 93.4 °F /  34.1 °C 65.3 °F /  18.5 °C 29.9in /  1011.8hPa NE 10.7mph /  17.2km/h 16.1mph /  25.9km/h 40% 0in /  0.0mm
18:49 93.4 °F /  34.1 °C 65.3 °F /  18.5 °C 29.9in /  1011.8hPa NE 10.6mph /  17km/h 16mph /  25.7km/h 40% 0in /  0.0mm
18:54 93.6 °F /  34.2 °C 65.1 °F /  18.4 °C 29.9in /  1011.7hPa NE 9.7mph /  15.6km/h 17.3mph /  27.8km/h 39.3% 0in /  0.0mm
18:59 93.4 °F /  34.1 °C 64.8 °F /  18.2 °C 29.9in /  1011.7hPa ENE 9.7mph /  15.6km/h 17mph /  27.4km/h 39.1% 0in /  0.0mm
19:04 93.4 °F /  34.1 °C 64.9 °F /  18.3 °C 29.9in /  1011.7hPa NE 9.7mph /  15.6km/h 16.1mph /  25.9km/h 39.5% 0in /  0.0mm
19:09 93.2 °F /  34 °C 64.8 °F /  18.2 °C 29.9in /  1011.6hPa NE 9.7mph /  15.6km/h 16mph /  25.7km/h 39.1% 0in /  0.0mm
19:14 93.2 °F /  34 °C 64.8 °F /  18.2 °C 29.9in /  1011.6hPa NE 9.7mph /  15.6km/h 17.3mph /  27.8km/h 39.2% 0in /  0.0mm
19:19 93 °F /  33.9 °C 64.9 °F /  18.3 °C 29.9in /  1011.6hPa NE 9.7mph /  15.6km/h 17mph /  27.4km/h 39.7% 0in /  0.0mm
19:24 92.8 °F /  33.8 °C 65.1 °F /  18.4 °C 29.9in /  1011.6hPa NE 9.7mph /  15.6km/h 16.1mph /  25.9km/h 40% 0in /  0.0mm
19:29 92.8 °F /  33.8 °C 64.9 °F /  18.3 °C 29.9in /  1011.6hPa NE 9.8mph /  15.7km/h 16mph /  25.7km/h 40% 0in /  0.0mm
19:34 92.7 °F /  33.7 °C 65.5 °F /  18.6 °C 29.9in /  1011.6hPa NE 10mph /  16.1km/h 16.1mph /  25.9km/h 40.9% 0in /  0.0mm
19:39 92.5 °F /  33.6 °C 65.5 °F /  18.6 °C 29.9in /  1011.6hPa NE 9.9mph /  15.9km/h 16mph /  25.7km/h 41.2% 0in /  0.0mm
19:44 92.5 °F /  33.6 °C 66 °F /  18.9 °C 29.9in /  1011.6hPa NE 9.2mph /  14.8km/h 15.2mph /  24.5km/h 42% 0in /  0.0mm
19:49 92.1 °F /  33.4 °C 66 °F /  18.9 °C 29.9in /  1011.6hPa NE 9.1mph /  14.7km/h 15mph /  24.1km/h 42.5% 0in /  0.0mm
19:54 91.9 °F /  33.3 °C 66.4 °F /  19.1 °C 29.9in /  1011.6hPa NE 8.7mph /  14km/h 14mph /  22.5km/h 43.3% 0in /  0.0mm
19:59 91.8 °F /  33.2 °C 66.7 °F /  19.3 °C 29.9in /  1011.6hPa NE 8.7mph /  14km/h 14.5mph /  23.3km/h 44% 0in /  0.0mm
20:04 91.4 °F /  33 °C 66.6 °F /  19.2 °C 29.9in /  1011.6hPa NE 8.7mph /  14km/h 17.3mph /  27.8km/h 44.3% 0in /  0.0mm
20:09 90.9 °F /  32.7 °C 67.3 °F /  19.6 °C 29.9in /  1011.6hPa NE 9mph /  14.5km/h 17mph /  27.4km/h 46% 0in /  0.0mm
20:14 90.3 °F /  32.4 °C 67.6 °F /  19.8 °C 29.9in /  1011.6hPa NE 10.7mph /  17.2km/h 17mph /  27.4km/h 47.3% 0in /  0.0mm
20:19 90 °F /  32.2 °C 67.8 °F /  19.9 °C 29.9in /  1011.8hPa NE 10.7mph /  17.2km/h 18.4mph /  29.6km/h 48.6% 0in /  0.0mm
20:24 89.2 °F /  31.8 °C 68.2 °F /  20.1 °C 29.9in /  1011.8hPa NE 10.7mph /  17.2km/h 18mph /  29km/h 49.8% 0in /  0.0mm
20:29 89.1 °F /  31.7 °C 68 °F /  20 °C 29.9in /  1011.8hPa NE 10.7mph /  17.2km/h 16.1mph /  25.9km/h 50% 0in /  0.0mm
20:34 88.7 °F /  31.5 °C 67.6 °F /  19.8 °C 29.9in /  1011.9hPa NE 10.7mph /  17.2km/h 16mph /  25.7km/h 50% 0in /  0.0mm
20:39 88.3 °F /  31.3 °C 67.5 °F /  19.7 °C 29.9in /  1011.9hPa NE 10.6mph /  17km/h 16.1mph /  25.9km/h 50% 0in /  0.0mm
20:44 88.2 °F /  31.2 °C 66.9 °F /  19.4 °C 29.9in /  1011.9hPa NNE 10mph /  16.1km/h 16.1mph /  25.9km/h 49.8% 0in /  0.0mm
20:49 87.8 °F /  31 °C 66.2 °F /  19 °C 29.9in /  1012.0hPa NE 10mph /  16.1km/h 16mph /  25.7km/h 49% 0in /  0.0mm
20:54 87.6 °F /  30.9 °C 65.7 °F /  18.7 °C 29.9in /  1012.0hPa NE 10.2mph /  16.4km/h 14mph /  22.5km/h 48.3% 0in /  0.0mm
20:59 87.6 °F /  30.9 °C 65.3 °F /  18.5 °C 29.9in /  1012.0hPa NE 9.9mph /  15.9km/h 14mph /  22.5km/h 47.6% 0in /  0.0mm
21:04 87.6 °F /  30.9 °C 64.9 °F /  18.3 °C 29.9in /  1012.0hPa NE 8.5mph /  13.7km/h 14mph /  22.5km/h 47% 0in /  0.0mm
21:09 87.4 °F /  30.8 °C 64.8 °F /  18.2 °C 29.9in /  1012.0hPa NE 8.3mph /  13.4km/h 12.3mph /  19.8km/h 47% 0in /  0.0mm
21:14 87.4 °F /  30.8 °C 64.2 °F /  17.9 °C 29.9in /  1012.0hPa NE 7.4mph /  11.9km/h 13mph /  20.9km/h 46.3% 0in /  0.0mm
21:19 87.3 °F /  30.7 °C 64.6 °F /  18.1 °C 29.9in /  1012.1hPa NNE 7.5mph /  12.1km/h 13mph /  20.9km/h 47% 0in /  0.0mm
21:24 87.1 °F /  30.6 °C 64.4 °F /  18 °C 29.9in /  1012.1hPa NE 8.1mph /  13km/h 12.3mph /  19.8km/h 47% 0in /  0.0mm
21:29 86.9 °F /  30.5 °C 64.4 °F /  18 °C 29.9in /  1012.1hPa NE 8mph /  12.9km/h 13mph /  20.9km/h 47.4% 0in /  0.0mm
21:34 86.7 °F /  30.4 °C 65.1 °F /  18.4 °C 29.9in /  1012.1hPa NE 7.4mph /  11.9km/h 12.7mph /  20.4km/h 48.7% 0in /  0.0mm
21:38 86.5 °F /  30.3 °C 66.2 °F /  19 °C 29.9in /  1012.1hPa NE 7.4mph /  11.9km/h 13.8mph /  22.2km/h 51% 0in /  0.0mm
Murcia-Puente Tocinos, España
Compliments of Weather Underground - 2.75 mb

La estación de MeteoMurcia.com, publica sus datos en los siguientes proyectos:

Weather Underground PWS IMURCIAP2 Meteoclimatic www.awekas.at

W3Counter
Web Analytics